Terminal Aerodrome Forecast
Issued by NWS Cleveland, OH

Home | Current Version | Previous Version | Graphics & Text | Print | Product List | Glossary On
Versions: 1 2 3 4 5 6 7 8 9 10 11 12 13 14 15 16 17 18
077
FTUS41 KCLE 231002 AAA
TAFMFD
TAF AMD
KMFD 231002Z 2310/2406 21014G20KT 6SM BR BKN012
      TEMPO 2310/2314 4SM BR BKN007
     FM231600 22010KT 6SM HZ BKN025
     FM232100 25008KT P6SM OVC035
     FM240000 05006KT 5SM BR OVC025
     FM240400 11006KT 2SM -RA BR OVC012=

USA.gov is the U.S. government's official web portal to all federal, state and local government web resources and services.